Time;durP1;ratioP1;P1;durP2;ratioP2;P2;SDS_P1;SDS_P2;PMS_P1;PMS_P2;Temp;Humidity;BMP_temperature;BMP_pressure;BME280_temperature;BME280_humidity;BME280_pressure;Samples;Min_cycle;Max_cycle;Signal;HPM_P1;HPM_P2
2023/04/09 00:01:09;;;;;;;62.88;43.42;;;;;;;6.78;90.19;100422.75;5054487;28;20032;-74
2023/04/09 00:03:36;;;;;;;70.32;46.38;;;;;;;6.81;90.07;100427.03;5054393;28;20033;-74
2023/04/09 00:06:02;;;;;;;67.28;45.22;;;;;;;6.90;89.77;100429.47;5054518;28;20029;-74
2023/04/09 00:08:27;;;;;;;67.85;45.40;;;;;;;6.92;89.70;100430.28;5054399;28;20033;-74
2023/04/09 00:10:54;;;;;;;71.90;47.22;;;;;;;6.77;90.20;100431.41;5054422;28;20021;-74
2023/04/09 00:13:19;;;;;;;72.80;49.55;;;;;;;6.60;90.73;100405.00;5054161;28;20029;-74
2023/04/09 00:15:45;;;;;;;72.45;47.97;;;;;;;6.66;90.38;100399.72;5054583;28;20377;-74
2023/04/09 00:18:11;;;;;;;77.85;47.97;;;;;;;6.59;90.54;100406.72;5053683;28;20035;-74
2023/04/09 00:20:37;;;;;;;71.97;47.00;;;;;;;6.69;90.39;100417.75;5054138;28;20377;-74
2023/04/09 00:23:02;;;;;;;70.82;46.25;;;;;;;6.78;90.56;100437.44;5054170;28;20082;-74
2023/04/09 00:25:27;;;;;;;67.40;44.95;;;;;;;6.62;91.11;100445.50;5054145;28;20078;-74
2023/04/09 00:27:55;;;;;;;71.95;45.42;;;;;;;6.68;90.98;100421.25;5053898;28;20041;-74
2023/04/09 00:30:21;;;;;;;69.22;47.72;;;;;;;6.77;90.65;100423.66;5053805;28;20053;-74
2023/04/09 00:32:46;;;;;;;69.80;45.13;;;;;;;6.68;90.28;100406.56;5052481;28;20499;-74
2023/04/09 00:35:12;;;;;;;71.47;47.55;;;;;;;6.84;90.19;100433.03;5053848;28;20021;-74
2023/04/09 00:37:37;;;;;;;63.40;43.78;;;;;;;6.58;90.40;100412.81;5053663;28;20118;-74
2023/04/09 00:40:04;;;;;;;65.20;44.70;;;;;;;6.48;91.36;100412.09;5053910;28;20021;-74
2023/04/09 00:42:34;;;;;;;67.75;45.65;;;;;;;6.58;91.06;100430.91;5053684;28;20587;-74
2023/04/09 00:45:00;;;;;;;67.47;46.42;;;;;;;6.62;91.68;100445.50;5053665;28;20044;-74
2023/04/09 00:47:27;;;;;;;71.03;46.42;;;;;;;6.68;91.19;100426.41;5053446;28;20080;-74
2023/04/09 00:49:53;;;;;;;76.22;47.80;;;;;;;6.64;90.57;100407.50;5053924;28;20079;-74
2023/04/09 00:52:19;;;;;;;71.10;47.33;;;;;;;6.63;90.43;100408.38;5053435;28;20036;-74
2023/04/09 00:54:44;;;;;;;71.93;47.53;;;;;;;6.72;90.16;100417.72;5053637;28;20472;-74
2023/04/09 00:57:11;;;;;;;69.78;46.40;;;;;;;6.44;91.18;100418.19;5053113;28;20044;-74
2023/04/09 00:59:37;;;;;;;68.25;46.08;;;;;;;6.61;91.26;100432.56;5053320;28;20032;-74
2023/04/09 01:02:02;;;;;;;69.47;45.22;;;;;;;6.66;91.26;100436.81;5053334;28;20064;-74
2023/04/09 01:04:27;;;;;;;76.10;49.15;;;;;;;6.67;91.13;100437.66;5053172;28;20048;-74
2023/04/09 01:07:00;;;;;;;70.13;46.55;;;;;;;6.47;91.05;100410.38;5053420;28;20029;-74
2023/04/09 01:09:32;;;;;;;73.22;48.35;;;;;;;6.69;91.30;100439.31;5053059;28;20029;-74
2023/04/09 01:12:17;;;;;;;71.80;46.60;;;;;;;6.50;91.45;100410.34;5053478;28;20036;-74
2023/04/09 01:15:08;;;;;;;70.32;46.47;;;;;;;6.66;91.01;100439.41;5053289;28;20049;-74
2023/04/09 01:17:34;;;;;;;68.25;45.67;;;;;;;6.72;91.13;100443.59;5053041;28;20029;-74
2023/04/09 01:20:04;;;;;;;73.07;46.13;;;;;;;6.54;91.61;100433.59;5053232;28;20496;-74
2023/04/09 01:23:02;;;;;;;71.50;47.65;;;;;;;6.64;91.42;100445.47;5052781;28;20025;-74
2023/04/09 01:25:42;;;;;;;75.85;51.05;;;;;;;6.66;91.65;100447.16;5052654;28;20644;-74
2023/04/09 01:28:22;;;;;;;71.95;46.60;;;;;;;6.61;91.71;100445.53;5052651;28;20100;-74
2023/04/09 01:30:49;;;;;;;72.78;49.38;;;;;;;6.64;91.51;100443.72;5052929;28;20028;-74
2023/04/09 01:33:17;;;;;;;73.15;48.17;;;;;;;6.23;92.20;100422.00;5052416;28;20029;-74
2023/04/09 01:35:44;;;;;;;77.47;49.08;;;;;;;6.11;92.96;100419.66;5052661;28;20489;-74
2023/04/09 01:38:12;;;;;;;68.18;46.85;;;;;;;6.37;92.79;100452.00;5052493;28;20028;-74
2023/04/09 01:40:38;;;;;;;79.13;51.00;;;;;;;6.21;92.85;100407.41;5052941;28;20025;-74
2023/04/09 01:43:06;;;;;;;85.82;54.30;;;;;;;6.21;93.12;100438.44;5052590;28;20491;-74
2023/04/09 01:45:32;;;;;;;75.25;49.55;;;;;;;6.31;92.51;100439.13;5052295;28;20017;-74
2023/04/09 01:47:58;;;;;;;75.97;51.38;;;;;;;6.29;92.16;100444.34;5052410;28;20120;-74
2023/04/09 01:50:23;;;;;;;70.47;46.22;;;;;;;6.08;92.79;100445.53;5052426;28;20021;-74
2023/04/09 01:52:49;;;;;;;72.75;47.70;;;;;;;6.05;93.64;100466.28;5052727;28;20028;-74
2023/04/09 01:55:15;;;;;;;71.93;48.47;;;;;;;5.91;94.45;100463.88;5052502;28;20108;-74
2023/04/09 01:57:40;;;;;;;76.45;50.85;;;;;;;5.98;94.65;100467.22;5052360;28;20155;-74
2023/04/09 02:00:06;;;;;;;78.40;49.38;;;;;;;5.91;94.59;100455.25;5052344;28;20045;-74
2023/04/09 02:02:38;;;;;;;74.75;50.47;;;;;;;5.78;95.38;100451.16;5052040;28;20036;-74
2023/04/09 02:05:07;;;;;;;75.28;48.90;;;;;;;5.84;94.92;100461.38;5052400;28;20029;-74
2023/04/09 02:07:41;;;;;;;76.32;49.53;;;;;;;5.93;95.56;100477.63;5052213;28;20033;-74
2023/04/09 02:10:30;;;;;;;76.07;48.72;;;;;;;5.81;95.77;100477.78;5052182;28;20021;-74
2023/04/09 02:12:56;;;;;;;79.50;50.78;;;;;;;5.91;95.58;100474.22;5049695;28;20041;-74
2023/04/09 02:15:23;;;;;;;80.03;49.22;;;;;;;6.10;95.19;100479.97;5049426;28;20074;-74
2023/04/09 02:17:48;;;;;;;81.55;50.85;;;;;;;5.47;95.58;100420.53;5048932;28;20571;-74
2023/04/09 02:20:18;;;;;;;73.43;49.17;;;;;;;5.95;95.31;100473.31;5049306;28;20120;-74
2023/04/09 02:22:45;;;;;;;74.47;50.20;;;;;;;5.98;95.58;100486.22;5049462;28;20037;-74
2023/04/09 02:25:11;;;;;;;71.13;48.80;;;;;;;5.98;95.43;100481.03;5049287;28;20049;-74
2023/04/09 02:27:36;;;;;;;73.80;49.65;;;;;;;5.95;94.87;100475.91;5048963;28;20224;-74
2023/04/09 02:30:01;;;;;;;80.85;50.10;;;;;;;6.15;95.37;100500.59;5049377;28;20144;-74
2023/04/09 02:32:26;;;;;;;75.43;49.58;;;;;;;6.16;95.48;100487.66;5049097;28;20496;-74
2023/04/09 02:34:52;;;;;;;73.22;50.20;;;;;;;5.98;95.63;100481.03;5049413;28;20025;-74
2023/04/09 02:37:17;;;;;;;72.20;47.95;;;;;;;6.23;95.32;100494.44;5049088;28;20029;-74
2023/04/09 02:39:42;;;;;;;77.75;47.63;;;;;;;6.22;94.77;100482.38;5049404;28;20354;-74
2023/04/09 02:42:08;;;;;;;89.90;56.85;;;;;;;6.19;95.47;100494.50;5049322;28;20087;-74
2023/04/09 02:44:33;;;;;;;88.25;59.85;;;;;;;6.06;96.08;100478.31;5050859;28;20579;-74
2023/04/09 02:46:59;;;;;;;139.15;77.85;;;;;;;6.34;95.25;100498.59;5051882;28;20029;-74
2023/04/09 02:49:24;;;;;;;82.88;56.35;;;;;;;6.15;95.19;100467.84;5051520;28;20032;-74
2023/04/09 02:51:49;;;;;;;72.18;49.70;;;;;;;6.25;95.48;100490.09;5051709;28;20028;-74
2023/04/09 02:54:15;;;;;;;81.28;54.33;;;;;;;5.85;95.67;100447.56;5051436;28;20160;-74
2023/04/09 02:56:40;;;;;;;81.82;54.63;;;;;;;5.96;96.33;100463.81;5051571;28;20025;-74
2023/04/09 02:59:05;;;;;;;93.10;56.83;;;;;;;6.07;96.31;100466.22;5051736;28;20021;-74
2023/04/09 03:01:31;;;;;;;91.18;59.60;;;;;;;6.06;96.07;100461.94;5051526;28;20104;-74
2023/04/09 03:03:56;;;;;;;92.88;61.22;;;;;;;6.16;95.92;100453.19;5051688;28;20025;-74
2023/04/09 03:06:21;;;;;;;78.63;53.33;;;;;;;6.28;96.18;100481.44;5051446;28;20029;-74
2023/04/09 03:08:47;;;;;;;85.43;54.10;;;;;;;6.19;95.72;100472.09;5051836;28;20079;-74
2023/04/09 03:11:12;;;;;;;87.35;56.88;;;;;;;6.27;95.83;100473.69;5051435;28;20029;-74
2023/04/09 03:13:37;;;;;;;88.05;56.45;;;;;;;6.42;95.75;100479.50;5051295;28;20428;-74
2023/04/09 03:16:03;;;;;;;88.25;57.05;;;;;;;6.25;95.73;100448.72;5051851;28;20107;-74
2023/04/09 03:18:28;;;;;;;82.25;55.67;;;;;;;6.16;95.80;100461.81;5051389;28;20465;-74
2023/04/09 03:20:54;;;;;;;84.55;55.33;;;;;;;6.47;95.89;100476.81;5051818;28;20112;-74
2023/04/09 03:23:19;;;;;;;86.25;57.25;;;;;;;6.46;94.90;100457.84;5051180;28;20522;-74
2023/04/09 03:25:44;;;;;;;81.43;54.13;;;;;;;6.37;95.45;100444.22;5051275;28;20029;-74
2023/04/09 03:28:10;;;;;;;86.85;56.20;;;;;;;6.52;95.33;100469.81;5051545;28;20049;-74
2023/04/09 03:30:35;;;;;;;75.57;51.08;;;;;;;6.43;95.18;100473.44;5055125;28;20492;-74
2023/04/09 03:33:00;;;;;;;74.30;50.65;;;;;;;6.49;95.41;100467.31;5054929;28;20495;-74
2023/04/09 03:35:26;;;;;;;75.70;50.00;;;;;;;6.10;95.87;100428.25;5054914;28;20028;-74
2023/04/09 03:37:51;;;;;;;74.28;50.75;;;;;;;6.20;95.76;100441.91;5054996;28;20059;-74
2023/04/09 03:40:16;;;;;;;73.88;49.60;;;;;;;6.31;95.94;100442.56;5054888;28;20060;-74
2023/04/09 03:42:42;;;;;;;75.88;50.53;;;;;;;6.32;95.92;100439.13;5054896;28;20495;-74
2023/04/09 03:45:08;;;;;;;74.28;50.42;;;;;;;6.41;95.95;100461.41;5054988;28;20560;-74
2023/04/09 03:47:33;;;;;;;76.22;52.33;;;;;;;6.43;95.77;100467.41;5054735;28;20060;-74
2023/04/09 03:49:58;;;;;;;77.00;52.83;;;;;;;6.52;95.72;100464.66;5054740;28;20027;-74
2023/04/09 03:52:24;;;;;;;74.82;50.35;;;;;;;6.29;95.51;100444.34;5054558;28;20402;-74
2023/04/09 03:54:49;;;;;;;77.57;53.13;;;;;;;6.51;96.04;100465.53;5054578;28;20368;-74
2023/04/09 03:57:15;;;;;;;79.45;53.38;;;;;;;6.44;95.27;100445.81;5055036;28;20036;-74
2023/04/09 03:59:40;;;;;;;80.13;52.40;;;;;;;6.51;95.32;100450.00;5054529;28;20044;-74
2023/04/09 04:02:05;;;;;;;76.75;52.90;;;;;;;6.34;95.41;100434.78;5054787;28;20504;-74
2023/04/09 04:04:31;;;;;;;79.70;52.70;;;;;;;6.43;95.44;100442.38;5054406;28;20061;-74
2023/04/09 04:06:56;;;;;;;73.22;50.53;;;;;;;6.49;95.15;100439.69;5054387;28;20029;-74
2023/04/09 04:09:21;;;;;;;81.78;54.92;;;;;;;6.55;95.26;100438.72;5054091;28;20056;-74
2023/04/09 04:11:47;;;;;;;81.10;53.83;;;;;;;6.64;94.54;100466.19;5054906;28;20674;-74
2023/04/09 04:14:12;;;;;;;75.43;53.22;;;;;;;6.67;94.53;100464.41;5054500;28;20029;-74
2023/04/09 04:16:39;;;;;;;84.03;56.83;;;;;;;6.67;94.55;100459.22;5054057;28;20032;-74
2023/04/09 04:19:05;;;;;;;82.28;56.55;;;;;;;6.53;94.53;100437.91;5054258;28;20017;-74
2023/04/09 04:21:30;;;;;;;81.25;56.25;;;;;;;6.69;94.22;100454.00;5054220;28;20025;-74
2023/04/09 04:23:56;;;;;;;80.25;53.05;;;;;;;6.65;94.31;100463.56;5054059;28;20021;-74
2023/04/09 04:26:21;;;;;;;72.45;51.92;;;;;;;6.63;94.13;100436.00;5054114;28;20377;-74
2023/04/09 04:28:47;;;;;;;75.80;52.88;;;;;;;6.82;94.36;100459.81;5054001;28;20048;-74
2023/04/09 04:31:13;;;;;;;74.25;51.97;;;;;;;6.65;94.12;100450.63;5054079;28;20071;-74
2023/04/09 04:33:41;;;;;;;78.57;52.65;;;;;;;6.63;94.37;100441.19;5053895;28;20100;-74
2023/04/09 04:36:08;;;;;;;75.80;51.70;;;;;;;6.74;94.03;100466.00;5054111;28;20036;-74
2023/04/09 04:38:34;;;;;;;75.78;51.03;;;;;;;6.63;94.01;100442.03;5053582;28;20078;-73
2023/04/09 04:41:00;;;;;;;75.75;52.53;;;;;;;6.80;94.21;100469.38;5053565;28;20029;-74
2023/04/09 04:43:25;;;;;;;74.07;49.50;;;;;;;6.67;93.84;100451.47;5053707;28;20025;-74
2023/04/09 04:45:51;;;;;;;77.30;54.22;;;;;;;6.87;93.77;100468.34;5053879;28;20485;-74
2023/04/09 04:48:16;;;;;;;72.57;50.08;;;;;;;6.86;93.52;100470.09;5053680;28;20159;-74
2023/04/09 04:50:41;;;;;;;71.38;48.92;;;;;;;6.75;93.51;100447.00;5053741;28;20061;-74
2023/04/09 04:53:07;;;;;;;71.95;51.05;;;;;;;6.84;93.38;100463.25;5053505;28;20584;-74
2023/04/09 04:55:35;;;;;;;72.32;49.63;;;;;;;6.75;93.54;100449.59;5053568;28;20087;-74
2023/04/09 04:58:00;;;;;;;73.53;50.38;;;;;;;6.89;93.47;100469.19;5053616;28;20090;-74
2023/04/09 05:00:26;;;;;;;69.90;48.28;;;;;;;6.78;94.08;100447.81;5053357;28;20068;-74
2023/04/09 05:02:51;;;;;;;71.40;50.40;;;;;;;6.99;94.10;100469.00;5053461;28;20107;-74
2023/04/09 05:05:16;;;;;;;72.90;49.00;;;;;;;6.97;93.98;100467.31;5053386;28;20048;-74
2023/04/09 05:07:42;;;;;;;72.50;50.15;;;;;;;6.94;93.97;100454.41;5052992;28;20021;-74
2023/04/09 05:10:07;;;;;;;74.45;51.25;;;;;;;6.91;93.97;100438.91;5053446;28;20539;-74
2023/04/09 05:12:33;;;;;;;73.28;49.63;;;;;;;6.93;94.13;100443.19;5053029;28;20021;-74
2023/04/09 05:14:58;;;;;;;71.15;51.53;;;;;;;6.98;93.66;100456.91;5053416;28;20052;-74
2023/04/09 05:17:23;;;;;;;78.75;52.70;;;;;;;7.13;93.75;100466.16;5052778;28;20100;-74
2023/04/09 05:19:52;;;;;;;74.65;51.10;;;;;;;7.13;93.61;100467.88;5053102;28;20021;-74
2023/04/09 05:22:17;;;;;;;71.88;48.70;;;;;;;7.18;93.82;100471.22;5053014;28;20495;-74
2023/04/09 05:24:42;;;;;;;74.00;51.50;;;;;;;7.17;93.41;100472.13;5053041;28;20055;-74
2023/04/09 05:27:08;;;;;;;76.63;52.08;;;;;;;7.02;93.68;100446.50;5053077;28;20368;-74
2023/04/09 05:29:33;;;;;;;72.97;49.78;;;;;;;7.14;93.92;100473.03;5052726;28;20045;-75
2023/04/09 05:31:59;;;;;;;72.28;51.83;;;;;;;6.91;93.91;100431.16;5052579;28;20043;-75
2023/04/09 05:34:24;;;;;;;70.00;49.60;;;;;;;6.98;94.09;100448.28;5052271;28;20074;-75
2023/04/09 05:36:49;;;;;;;70.05;50.33;;;;;;;6.93;94.63;100440.63;5052630;28;20400;-75
2023/04/09 05:39:15;;;;;;;72.95;49.83;;;;;;;6.91;94.54;100437.22;5052601;28;20024;-75
2023/04/09 05:41:40;;;;;;;71.95;49.83;;;;;;;7.04;95.00;100442.13;5052428;28;20032;-75
2023/04/09 05:44:06;;;;;;;73.50;49.42;;;;;;;7.11;95.67;100459.28;5052669;28;20029;-74
2023/04/09 05:46:31;;;;;;;70.38;48.63;;;;;;;7.22;95.70;100471.13;5052471;28;20048;-74
2023/04/09 05:48:56;;;;;;;72.50;49.88;;;;;;;7.14;95.67;100460.06;5052684;28;20029;-74
2023/04/09 05:51:22;;;;;;;72.57;51.50;;;;;;;7.08;95.93;100446.38;5051720;28;20031;-75
2023/04/09 05:53:47;;;;;;;73.38;49.97;;;;;;;7.13;96.10;100452.34;5052144;28;20017;-75
2023/04/09 05:56:15;;;;;;;76.60;51.45;;;;;;;7.10;96.43;100448.06;5052373;28;20117;-75
2023/04/09 05:58:42;;;;;;;79.05;53.08;;;;;;;7.27;96.71;100470.19;5052184;28;20025;-74
2023/04/09 06:01:07;;;;;;;75.93;52.28;;;;;;;7.30;96.50;100475.31;5052448;28;20037;-75
2023/04/09 06:03:32;;;;;;;70.78;50.10;;;;;;;7.32;96.47;100476.97;5052152;28;20029;-74
2023/04/09 06:05:58;;;;;;;73.78;51.03;;;;;;;7.10;96.70;100439.44;5052207;28;20461;-74
2023/04/09 06:08:23;;;;;;;76.50;50.90;;;;;;;7.38;96.82;100481.22;5052128;28;20104;-74
2023/04/09 06:10:48;;;;;;;74.45;50.38;;;;;;;7.41;96.36;100484.56;5052069;28;20020;-75
2023/04/09 06:13:14;;;;;;;79.85;51.38;;;;;;;7.31;96.33;100464.06;5052307;28;20032;-74
2023/04/09 06:15:39;;;;;;;79.30;53.22;;;;;;;7.45;96.44;100483.63;5052003;28;20060;-74
2023/04/09 06:18:04;;;;;;;76.00;52.47;;;;;;;7.32;96.53;100456.25;5052131;28;20048;-74
2023/04/09 06:20:30;;;;;;;73.22;51.20;;;;;;;7.49;96.67;100495.63;5051861;28;20021;-74
2023/04/09 06:22:55;;;;;;;73.85;51.67;;;;;;;7.52;97.00;100480.91;5051920;28;20021;-75
2023/04/09 06:25:21;;;;;;;75.72;51.20;;;;;;;7.40;96.96;100469.06;5052134;28;20029;-75
2023/04/09 06:27:49;;;;;;;76.72;52.08;;;;;;;7.41;96.98;100469.00;5051703;28;20050;-74
2023/04/09 06:30:14;;;;;;;74.68;51.00;;;;;;;7.51;96.68;100482.66;5052017;28;20025;-74
2023/04/09 06:32:40;;;;;;;70.40;49.72;;;;;;;7.49;96.89;100481.81;5051638;28;20404;-74
2023/04/09 06:35:07;;;;;;;67.85;48.08;;;;;;;7.42;96.80;100462.97;5051783;28;20029;-74
2023/04/09 06:37:32;;;;;;;66.68;48.13;;;;;;;7.52;96.66;100479.16;5051479;28;20452;-74
2023/04/09 06:39:58;;;;;;;70.95;49.92;;;;;;;7.50;96.26;100473.19;5051689;28;20063;-74
2023/04/09 06:42:23;;;;;;;71.07;49.17;;;;;;;7.45;96.51;100460.28;5051848;28;20032;-74
2023/04/09 06:44:48;;;;;;;77.80;54.33;;;;;;;7.53;96.27;100493.84;5051644;28;20025;-74
2023/04/09 06:47:14;;;;;;;69.65;50.72;;;;;;;7.60;96.64;100494.56;5051708;28;20047;-74
2023/04/09 06:49:39;;;;;;;80.30;56.00;;;;;;;7.40;96.63;100467.31;5051467;28;20021;-74
2023/04/09 06:52:06;;;;;;;79.93;55.13;;;;;;;7.62;96.80;100492.78;5051597;28;20124;-74
2023/04/09 06:54:31;;;;;;;72.43;50.90;;;;;;;7.56;96.65;100474.78;5051606;28;20021;-74
2023/04/09 06:56:56;;;;;;;74.55;51.47;;;;;;;7.65;96.97;100474.59;5051832;28;20055;-74
2023/04/09 06:59:22;;;;;;;69.50;48.88;;;;;;;7.83;96.69;100497.50;5051668;28;20114;-74
2023/04/09 07:01:47;;;;;;;70.28;47.40;;;;;;;7.83;96.53;100496.66;5051241;28;20033;-74
2023/04/09 07:04:12;;;;;;;69.40;48.78;;;;;;;7.87;96.46;100500.91;5055368;28;20021;-74
2023/04/09 07:06:39;;;;;;;66.47;46.30;;;;;;;7.89;96.39;100492.22;5055282;28;20457;-74
2023/04/09 07:09:04;;;;;;;68.88;47.60;;;;;;;7.92;96.49;100501.66;5055281;28;20460;-74
2023/04/09 07:11:29;;;;;;;68.13;47.75;;;;;;;7.83;96.33;100486.28;5054081;28;20106;-74
2023/04/09 07:13:55;;;;;;;72.00;47.63;;;;;;;7.82;96.32;100485.44;5049015;28;20022;-74
2023/04/09 07:16:21;;;;;;;68.68;48.53;;;;;;;7.91;96.05;100498.19;5038058;28;20117;-74
2023/04/09 07:18:46;;;;;;;64.18;47.25;;;;;;;7.50;95.98;100432.56;5034969;28;20021;-75
2023/04/09 07:21:11;;;;;;;69.55;49.45;;;;;;;7.94;96.06;100513.69;5035269;28;20515;-74
2023/04/09 07:23:37;;;;;;;66.57;47.30;;;;;;;7.94;95.86;100503.31;5035040;28;20033;-74
2023/04/09 07:26:04;;;;;;;67.43;46.90;;;;;;;7.80;96.15;100489.81;5035475;28;20117;-74
2023/04/09 07:28:29;;;;;;;65.70;48.08;;;;;;;7.92;95.54;100506.84;5035255;28;20053;-75
2023/04/09 07:30:55;;;;;;;67.03;47.85;;;;;;;7.92;95.56;100506.84;5033975;28;20084;-75
2023/04/09 07:33:20;;;;;;;63.85;46.78;;;;;;;7.72;95.29;100470.97;5035087;28;20537;-74
2023/04/09 07:35:46;;;;;;;66.72;47.92;;;;;;;7.92;95.61;100504.25;5035008;28;20032;-74
2023/04/09 07:38:11;;;;;;;67.85;46.30;;;;;;;7.82;95.59;100482.84;5035226;28;20483;-75
2023/04/09 07:40:36;;;;;;;72.40;49.55;;;;;;;7.86;95.94;100488.81;5034951;28;20091;-75
2023/04/09 07:43:02;;;;;;;71.50;48.50;;;;;;;7.91;95.57;100499.94;5035070;28;20108;-75
2023/04/09 07:45:27;;;;;;;73.22;49.08;;;;;;;7.88;95.61;100493.09;5034750;28;20032;-74
2023/04/09 07:47:53;;;;;;;66.85;46.30;;;;;;;7.91;95.75;100500.78;5037009;28;20025;-74
2023/04/09 07:50:18;;;;;;;66.78;46.72;;;;;;;7.92;95.70;100505.13;5043879;28;20757;-75
2023/04/09 07:52:43;;;;;;;71.03;48.78;;;;;;;8.04;95.84;100519.53;5041838;28;20022;-74
2023/04/09 07:55:09;;;;;;;75.82;50.42;;;;;;;7.95;96.39;100493.81;5034860;28;20052;-75
2023/04/09 07:57:35;;;;;;;79.75;53.00;;;;;;;8.11;96.63;100513.31;5053735;28;20057;-74
2023/04/09 08:00:01;;;;;;;78.95;53.58;;;;;;;8.04;97.10;100488.41;5054485;28;20028;-74
2023/04/09 08:02:26;;;;;;;78.47;52.58;;;;;;;8.28;97.24;100512.94;5054517;28;20029;-74
2023/04/09 08:04:51;;;;;;;72.72;51.22;;;;;;;8.29;97.20;100498.22;5054244;28;20025;-73
2023/04/09 08:07:17;;;;;;;64.47;46.83;;;;;;;8.26;96.96;100493.97;5054477;28;20036;-73
2023/04/09 08:09:42;;;;;;;65.05;45.85;;;;;;;8.23;96.20;100481.91;5053564;28;20073;-73
2023/04/09 08:12:07;;;;;;;61.83;44.53;;;;;;;8.45;95.68;100513.41;5054741;28;20036;-73
2023/04/09 08:14:33;;;;;;;61.35;44.20;;;;;;;8.53;95.51;100512.41;5053205;28;20107;-73
2023/04/09 08:16:58;;;;;;;59.40;44.38;;;;;;;8.55;95.01;100492.41;5054376;28;20091;-73
2023/04/09 08:19:24;;;;;;;61.28;44.45;;;;;;;8.63;94.52;100480.94;5054183;28;20112;-73
2023/04/09 08:21:49;;;;;;;59.33;44.15;;;;;;;8.84;94.67;100489.09;5054247;28;20025;-73
2023/04/09 08:24:15;;;;;;;67.32;45.97;;;;;;;8.82;94.35;100486.53;5054315;28;20024;-73
2023/04/09 08:26:41;;;;;;;64.65;46.05;;;;;;;8.98;94.53;100493.03;5053996;28;20357;-73
2023/04/09 08:29:08;;;;;;;63.10;44.80;;;;;;;9.00;94.07;100488.66;5053919;28;20048;-73
2023/04/09 08:31:34;;;;;;;60.70;43.97;;;;;;;8.92;94.22;100479.34;5053847;28;20032;-73
2023/04/09 08:33:59;;;;;;;62.08;44.75;;;;;;;9.11;93.52;100501.38;5053901;28;20029;-73
2023/04/09 08:36:25;;;;;;;58.58;42.22;;;;;;;9.03;93.10;100484.28;5054162;28;20191;-73
2023/04/09 08:38:51;;;;;;;61.88;44.40;;;;;;;9.18;92.45;100492.47;5053544;28;20029;-74
2023/04/09 08:41:24;;;;;;;55.50;40.67;;;;;;;9.13;92.10;100494.38;5053916;28;20068;-74
2023/04/09 08:43:52;;;;;;;61.28;43.90;;;;;;;9.26;91.97;100502.69;5053637;28;20036;-73
2023/04/09 08:46:21;;;;;;;58.75;42.80;;;;;;;9.33;92.16;100501.63;5053665;28;20040;-73
2023/04/09 08:48:51;;;;;;;59.03;43.67;;;;;;;9.23;92.10;100482.00;5052190;28;20462;-73
2023/04/09 08:51:18;;;;;;;65.43;48.17;;;;;;;9.24;91.87;100487.13;5053837;28;20096;-73
2023/04/09 08:53:46;;;;;;;65.32;45.00;;;;;;;9.30;91.77;100495.66;5053470;28;20032;-75
2023/04/09 08:56:12;;;;;;;58.47;43.67;;;;;;;9.36;91.16;100503.28;5053551;28;20152;-74
2023/04/09 08:58:42;;;;;;;57.20;42.42;;;;;;;9.29;90.87;100497.41;5053224;28;20024;-74
2023/04/09 09:01:27;;;;;;;61.22;42.60;;;;;;;9.24;90.77;100478.50;5053317;28;20029;-75
2023/04/09 09:03:57;;;;;;;53.47;40.10;;;;;;;9.46;90.61;100509.94;5053363;28;20124;-75
2023/04/09 09:06:26;;;;;;;52.40;39.75;;;;;;;9.59;90.16;100507.81;5053465;28;20032;-75
2023/04/09 09:09:03;;;;;;;49.22;39.38;;;;;;;9.89;89.50;100503.47;5053002;28;20039;-74
2023/04/09 09:11:29;;;;;;;53.40;39.53;;;;;;;10.14;88.99;100491.41;5052996;28;20033;-75
2023/04/09 09:14:00;;;;;;;53.60;39.85;;;;;;;10.39;87.94;100470.69;5053019;28;20037;-76
2023/04/09 09:16:26;;;;;;;56.05;40.17;;;;;;;10.64;87.03;100480.28;5053353;28;20028;-76
2023/04/09 09:18:55;;;;;;;55.20;39.10;;;;;;;10.78;86.26;100504.13;5052886;28;20028;-75
2023/04/09 09:21:20;;;;;;;49.42;37.42;;;;;;;10.68;86.15;100476.69;5053041;28;20025;-76
2023/04/09 09:23:47;;;;;;;49.30;37.83;;;;;;;10.63;85.49;100473.38;5052763;28;20021;-77
2023/04/09 09:26:20;;;;;;;52.58;39.08;;;;;;;10.65;84.45;100502.81;5052760;28;20025;-76
2023/04/09 09:28:47;;;;;;;50.90;38.50;;;;;;;10.27;85.29;100472.81;5052854;28;20098;-76
2023/04/09 09:31:13;;;;;;;51.50;37.80;;;;;;;10.30;86.04;100489.22;5051738;28;20384;-76
2023/04/09 09:33:39;;;;;;;48.20;36.83;;;;;;;10.20;86.42;100478.22;5042689;28;20473;-79
2023/04/09 09:36:05;;;;;;;50.65;38.38;;;;;;;10.38;86.46;100507.19;5052904;28;20059;-79
2023/04/09 09:38:31;;;;;;;49.03;37.78;;;;;;;10.21;86.61;100481.66;5052342;28;20033;-79
2023/04/09 09:40:57;;;;;;;48.58;37.85;;;;;;;10.29;86.94;100497.94;5049821;28;20652;-77
2023/04/09 09:43:23;;;;;;;51.63;36.97;;;;;;;10.33;86.99;100509.94;5052514;28;20056;-77
2023/04/09 09:45:49;;;;;;;52.38;39.58;;;;;;;10.34;87.06;100510.78;5052244;28;20060;-77
2023/04/09 09:48:16;;;;;;;48.85;36.85;;;;;;;10.25;86.78;100498.91;5052035;28;20033;-76
2023/04/09 09:50:47;;;;;;;44.78;35.38;;;;;;;10.20;86.28;100488.63;5052006;28;20029;-79
2023/04/09 09:53:20;;;;;;;46.80;35.25;;;;;;;10.17;86.21;100501.72;5052034;28;20024;-76
2023/04/09 09:55:53;;;;;;;46.47;35.13;;;;;;;10.07;86.74;100499.44;5052113;28;20029;-75
2023/04/09 09:58:27;;;;;;;49.83;37.33;;;;;;;9.86;86.99;100487.94;5051681;28;20032;-78
2023/04/09 10:00:52;;;;;;;48.67;36.80;;;;;;;9.72;87.33;100483.16;5051998;28;20108;-77
2023/04/09 10:03:29;;;;;;;47.10;36.47;;;;;;;9.73;87.67;100514.34;5052015;28;20116;-77
2023/04/09 10:05:57;;;;;;;49.65;38.60;;;;;;;9.66;88.15;100504.16;5051962;28;20021;-76
2023/04/09 10:08:26;;;;;;;53.50;38.67;;;;;;;9.61;88.75;100503.44;5036228;28;20025;-76
2023/04/09 10:10:55;;;;;;;50.75;38.80;;;;;;;9.53;88.99;100500.22;5031620;28;20025;-74
2023/04/09 10:13:31;;;;;;;50.28;37.42;;;;;;;9.51;89.60;100502.84;5031699;28;20034;-75
2023/04/09 10:16:00;;;;;;;51.45;38.47;;;;;;;9.49;90.54;100502.91;5031396;28;20033;-74
2023/04/09 10:18:33;;;;;;;57.67;41.92;;;;;;;9.46;91.02;100495.19;5031819;28;20024;-74
2023/04/09 10:21:06;;;;;;;57.60;43.40;;;;;;;9.38;91.12;100506.69;5031669;28;20103;-75
2023/04/09 10:23:41;;;;;;;70.05;49.78;;;;;;;9.19;92.00;100490.75;5031751;28;20057;-74
2023/04/09 10:26:07;;;;;;;86.70;55.97;;;;;;;9.16;92.39;100503.84;5040976;28;20424;-75
2023/04/09 10:28:36;;;;;;;85.78;54.78;;;;;;;9.19;93.10;100506.38;5045252;28;20155;-78
2023/04/09 10:31:03;;;;;;;74.95;50.28;;;;;;;9.19;93.62;100508.97;5040171;28;20493;-78
2023/04/09 10:33:28;;;;;;;85.82;54.08;;;;;;;9.17;93.79;100502.94;5042223;28;20032;-78
2023/04/09 10:35:58;;;;;;;63.05;45.35;;;;;;;9.09;93.78;100482.34;5039867;28;20362;-78
2023/04/09 10:38:37;;;;;;;59.08;42.67;;;;;;;9.17;93.69;100495.13;5040459;28;20025;-78
2023/04/09 10:41:15;;;;;;;58.17;42.83;;;;;;;9.30;93.88;100500.84;5044201;28;20485;-75
2023/04/09 10:43:41;;;;;;;64.30;44.20;;;;;;;9.29;93.90;100502.59;5051598;28;20461;-74
2023/04/09 10:46:25;;;;;;;57.88;42.80;;;;;;;9.26;94.10;100505.28;5051163;28;20083;-75
2023/04/09 10:49:17;;;;;;;54.85;42.20;;;;;;;9.31;94.12;100508.59;5051256;28;20029;-76
2023/04/09 10:52:00;;;;;;;65.15;43.63;;;;;;;9.20;93.43;100516.69;5050934;28;20108;-76
2023/04/09 10:54:31;;;;;;;62.08;44.67;;;;;;;9.21;94.47;100515.81;5051606;28;20175;-76
2023/04/09 10:57:05;;;;;;;66.78;45.70;;;;;;;9.23;94.70;100502.78;5051462;28;20063;-76
2023/04/09 10:59:31;;;;;;;64.80;47.55;;;;;;;9.26;95.11;100505.28;5051421;28;20084;-76
2023/04/09 11:01:56;;;;;;;73.22;49.30;;;;;;;9.15;95.29;100473.56;5049776;28;20033;-76
2023/04/09 11:04:31;;;;;;;74.72;52.90;;;;;;;9.29;95.54;100500.00;5052009;28;20025;-76
2023/04/09 11:06:56;;;;;;;80.18;59.55;;;;;;;9.31;95.52;100494.75;5051470;28;20029;-78
2023/04/09 11:09:22;;;;;;;73.40;55.40;;;;;;;9.14;95.72;100464.03;5051615;28;20035;-76
2023/04/09 11:11:53;;;;;;;65.15;49.05;;;;;;;9.09;95.97;100461.56;5051303;28;20108;-76
2023/04/09 11:14:19;;;;;;;66.78;49.03;;;;;;;9.13;96.36;100467.53;5050009;28;20021;-77
2023/04/09 11:16:46;;;;;;;66.70;45.25;;;;;;;9.23;96.66;100482.84;5050478;28;20107;-76